createdAt,value
2023-01-17T00:02:03.398Z,1.70
2023-01-17T00:04:49.669Z,1.73
2023-01-17T00:10:08.493Z,1.65
2023-01-17T00:12:37.073Z,1.52
2023-01-17T00:15:07.522Z,1.75
2023-01-17T00:17:35.855Z,1.60
2023-01-17T00:20:21.703Z,2.00
2023-01-17T00:23:08.695Z,1.42
2023-01-17T00:25:57.133Z,1.40
2023-01-17T00:28:25.368Z,1.77
2023-01-17T00:30:52.809Z,1.50
2023-01-17T00:33:21.637Z,1.80
2023-01-17T00:35:49.395Z,2.05
2023-01-17T00:38:19.875Z,2.00
2023-01-17T00:40:48.377Z,2.20
2023-01-17T00:43:36.848Z,2.50
2023-01-17T00:46:23.741Z,2.10
2023-01-17T00:49:10.070Z,2.38
2023-01-17T00:51:56.501Z,2.78
2023-01-17T00:54:43.683Z,3.00
2023-01-17T00:57:29.554Z,2.97
2023-01-17T01:00:15.516Z,2.95
2023-01-17T01:03:01.403Z,2.67
2023-01-17T01:05:47.773Z,2.58
2023-01-17T01:08:41.236Z,2.50
2023-01-17T01:11:30.375Z,2.60
2023-01-17T01:14:17.821Z,2.50
2023-01-17T01:17:04.148Z,2.65
2023-01-17T01:19:50.143Z,2.70
2023-01-17T01:22:35.978Z,2.88
2023-01-17T01:25:22.769Z,2.70
2023-01-17T01:28:09.853Z,2.70
2023-01-17T01:30:55.643Z,2.70
2023-01-17T01:33:23.084Z,3.25
2023-01-17T01:35:53.639Z,2.63
2023-01-17T01:38:24.032Z,2.70
2023-01-17T01:40:54.614Z,2.45
2023-01-17T01:43:43.555Z,2.55
2023-01-17T01:46:14.742Z,2.45
2023-01-17T01:48:48.203Z,2.65
2023-01-17T01:51:20.414Z,2.05
2023-01-17T01:53:51.915Z,2.60
2023-01-17T01:56:23.529Z,2.92
2023-01-17T01:58:54.113Z,2.55
2023-01-17T02:01:22.566Z,2.20
2023-01-17T02:03:51.244Z,2.47
2023-01-17T02:06:33.341Z,3.05
2023-01-17T02:09:05.055Z,1.98
2023-01-17T02:11:34.480Z,2.72
2023-01-17T02:14:04.461Z,2.60
2023-01-17T02:16:56.250Z,2.20
2023-01-17T02:20:01.987Z,2.30
2023-01-17T02:23:00.685Z,2.50
2023-01-17T02:25:53.679Z,2.70
2023-01-17T02:28:43.772Z,2.28
2023-01-17T02:31:18.702Z,3.08
2023-01-17T02:33:56.295Z,2.38
2023-01-17T02:36:31.137Z,2.53
2023-01-17T02:39:06.986Z,2.40
2023-01-17T02:41:38.288Z,2.83
2023-01-17T02:44:09.639Z,2.80
2023-01-17T02:46:46.602Z,3.38
2023-01-17T02:49:16.977Z,3.60
2023-01-17T02:52:08.283Z,3.42
2023-01-17T02:54:54.766Z,3.58
2023-01-17T02:57:42.478Z,2.92
2023-01-17T03:00:21.577Z,3.45
2023-01-17T03:02:59.916Z,3.20
2023-01-17T03:05:36.741Z,3.72
2023-01-17T03:08:06.238Z,3.90
2023-01-17T03:10:36.482Z,4.32
2023-01-17T03:13:05.110Z,4.43
2023-01-17T03:15:33.681Z,3.92
2023-01-17T03:18:06.766Z,3.67
2023-01-17T03:20:35.069Z,4.78
2023-01-17T03:23:03.408Z,4.03
2023-01-17T03:25:32.174Z,4.43
2023-01-17T03:28:00.511Z,4.45
2023-01-17T03:30:28.987Z,3.75
2023-01-17T03:32:57.326Z,4.63
2023-01-17T03:35:28.141Z,3.72
2023-01-17T03:37:56.738Z,4.10
2023-01-17T03:40:25.046Z,3.97
2023-01-17T03:42:53.408Z,3.90
2023-01-17T03:45:21.731Z,4.10
2023-01-17T03:47:50.048Z,4.03
2023-01-17T03:50:18.492Z,3.33
2023-01-17T03:52:48.201Z,4.00
2023-01-17T03:55:16.822Z,3.30
2023-01-17T03:57:45.147Z,4.13
2023-01-17T04:00:14.647Z,3.88
2023-01-17T04:02:43.028Z,4.38
2023-01-17T04:05:11.460Z,3.17
2023-01-17T04:07:39.969Z,3.85
2023-01-17T04:10:11.047Z,3.15
2023-01-17T04:12:39.441Z,3.65
2023-01-17T04:15:08.754Z,4.07
2023-01-17T04:17:37.218Z,3.53
2023-01-17T04:20:06.719Z,3.63
2023-01-17T04:22:35.069Z,3.50
2023-01-17T04:25:03.390Z,3.85
2023-01-17T04:27:33.049Z,3.80
2023-01-17T04:30:01.488Z,3.88
2023-01-17T04:32:29.887Z,3.55
2023-01-17T04:34:58.256Z,3.15
2023-01-17T04:37:26.963Z,3.60
2023-01-17T04:39:55.281Z,3.40
2023-01-17T04:42:23.560Z,3.25
2023-01-17T04:44:53.254Z,3.55
2023-01-17T04:47:21.589Z,3.25
2023-01-17T04:49:49.950Z,3.28
2023-01-17T04:52:20.444Z,3.85
2023-01-17T04:54:49.477Z,3.33
2023-01-17T04:57:18.455Z,3.10
2023-01-17T04:59:47.672Z,4.00
2023-01-17T05:02:17.664Z,3.38
2023-01-17T05:04:46.136Z,3.13
2023-01-17T05:07:14.494Z,3.55
2023-01-17T05:09:43.577Z,2.85
2023-01-17T05:12:12.110Z,3.35
2023-01-17T05:14:40.597Z,3.17
2023-01-17T05:17:11.052Z,3.17
2023-01-17T05:19:40.848Z,2.65
2023-01-17T05:22:15.174Z,3.40
2023-01-17T05:24:44.153Z,3.53
2023-01-17T05:27:13.332Z,3.22
2023-01-17T05:29:41.860Z,3.00
2023-01-17T05:32:10.288Z,3.25
2023-01-17T05:34:39.925Z,3.20
2023-01-17T05:37:08.270Z,3.35
2023-01-17T05:39:36.704Z,3.63
2023-01-17T05:42:05.453Z,3.42
2023-01-17T05:44:33.723Z,3.60
2023-01-17T05:47:02.061Z,3.50
2023-01-17T05:49:30.373Z,3.35
2023-01-17T05:52:00.149Z,3.33
2023-01-17T05:54:28.474Z,3.20
2023-01-17T05:56:56.784Z,3.47
2023-01-17T05:59:36.521Z,3.53
2023-01-17T06:02:05.891Z,3.20
2023-01-17T06:04:34.262Z,3.20
2023-01-17T06:07:04.000Z,3.10
2023-01-17T06:09:32.283Z,3.45
2023-01-17T06:12:00.666Z,3.17
2023-01-17T06:14:29.030Z,2.88
2023-01-17T06:16:57.340Z,3.35
2023-01-17T06:19:25.784Z,3.10
2023-01-17T06:21:54.172Z,3.58
2023-01-17T06:24:23.847Z,3.33
2023-01-17T06:26:52.142Z,3.78
2023-01-17T06:29:20.581Z,3.80
2023-01-17T06:31:48.914Z,3.67
2023-01-17T06:34:17.267Z,3.53
2023-01-17T06:36:45.618Z,3.67
2023-01-17T06:39:15.144Z,3.60
2023-01-17T06:41:45.132Z,3.33
2023-01-17T06:44:13.821Z,4.00
2023-01-17T06:46:42.315Z,4.30
2023-01-17T06:49:10.649Z,4.28
2023-01-17T06:51:38.966Z,3.35
2023-01-17T06:54:07.592Z,3.88
2023-01-17T06:56:35.927Z,4.00
2023-01-17T06:59:05.976Z,3.70
2023-01-17T07:01:34.479Z,4.05
2023-01-17T07:04:04.483Z,4.25
2023-01-17T07:06:32.888Z,4.72
2023-01-17T07:09:01.661Z,4.50
2023-01-17T07:11:29.938Z,4.30
2023-01-17T07:13:58.457Z,4.35
2023-01-17T07:16:28.187Z,4.00
2023-01-17T07:18:57.987Z,5.15
2023-01-17T07:21:26.405Z,4.60
2023-01-17T07:23:54.814Z,4.75
2023-01-17T07:26:23.152Z,4.35
2023-01-17T07:28:51.495Z,4.78
2023-01-17T07:31:19.870Z,5.28
2023-01-17T07:33:49.600Z,4.30
2023-01-17T07:36:17.896Z,5.00
2023-01-17T07:38:47.256Z,4.30
2023-01-17T07:41:15.575Z,4.18
2023-01-17T07:43:43.926Z,4.53
2023-01-17T07:46:15.128Z,4.50
2023-01-17T07:48:43.505Z,4.60
2023-01-17T07:51:13.239Z,4.70
2023-01-17T07:53:41.629Z,4.28
2023-01-17T07:56:09.948Z,4.75
2023-01-17T07:58:38.273Z,4.10
2023-01-17T08:01:08.938Z,4.63
2023-01-17T08:03:39.889Z,4.93
2023-01-17T08:06:15.534Z,4.47
2023-01-17T08:08:45.196Z,4.78
2023-01-17T08:11:13.803Z,5.30
2023-01-17T08:13:42.406Z,3.85
2023-01-17T08:16:11.233Z,4.60
2023-01-17T08:18:39.638Z,4.25
2023-01-17T08:21:14.403Z,3.90
2023-01-17T08:23:42.777Z,4.53
2023-01-17T08:26:21.316Z,3.83
2023-01-17T08:28:50.723Z,3.53
2023-01-17T08:31:19.827Z,3.30
2023-01-17T08:33:48.390Z,3.85
2023-01-17T08:36:16.717Z,3.30
2023-01-17T08:38:45.206Z,3.65
2023-01-17T08:41:14.855Z,3.22
2023-01-17T08:43:43.161Z,2.90
2023-01-17T08:46:11.504Z,3.10
2023-01-17T08:48:39.997Z,3.28
2023-01-17T08:51:08.307Z,2.95
2023-01-17T08:53:36.692Z,2.80
2023-01-17T08:56:06.355Z,3.67
2023-01-17T08:58:36.124Z,2.80
2023-01-17T09:01:06.815Z,3.00
2023-01-17T09:03:38.305Z,2.95
2023-01-17T09:06:10.138Z,2.70
2023-01-17T09:08:39.268Z,2.72
2023-01-17T09:11:09.406Z,2.70
2023-01-17T09:13:40.042Z,2.70
2023-01-17T09:16:09.196Z,2.70
2023-01-17T09:18:37.689Z,2.85
2023-01-17T09:21:13.267Z,2.60
2023-01-17T09:23:42.034Z,2.67
2023-01-17T09:26:19.621Z,2.55
2023-01-17T09:28:49.517Z,2.60
2023-01-17T09:31:18.552Z,2.40
2023-01-17T09:33:46.879Z,2.75
2023-01-17T09:36:15.328Z,2.45
2023-01-17T09:38:44.587Z,2.53
2023-01-17T09:41:23.895Z,2.70
2023-01-17T09:43:57.817Z,2.30
2023-01-17T09:46:30.479Z,2.35
2023-01-17T09:49:05.262Z,2.50
2023-01-17T09:51:34.003Z,2.25
2023-01-17T09:54:03.388Z,2.10
2023-01-17T09:56:35.840Z,2.33
2023-01-17T09:59:18.960Z,2.40
2023-01-17T10:01:56.735Z,2.33
2023-01-17T10:04:51.295Z,2.33
2023-01-17T10:07:29.477Z,2.17
2023-01-17T10:10:13.555Z,2.10
2023-01-17T10:12:54.528Z,2.55
2023-01-17T10:15:39.022Z,2.10
2023-01-17T10:18:30.056Z,2.05
2023-01-17T10:21:06.197Z,1.90
2023-01-17T10:23:52.738Z,1.83
2023-01-17T10:26:24.635Z,2.70
2023-01-17T10:28:54.205Z,2.38
2023-01-17T10:31:25.744Z,1.77
2023-01-17T10:33:56.133Z,2.13
2023-01-17T10:36:27.190Z,2.00
2023-01-17T10:39:00.140Z,1.50
2023-01-17T10:41:31.708Z,1.50
2023-01-17T10:44:12.728Z,1.52
2023-01-17T10:46:48.223Z,1.70
2023-01-17T10:49:19.639Z,1.60
2023-01-17T10:52:00.831Z,1.10
2023-01-17T10:54:44.252Z,1.30
2023-01-17T10:57:16.008Z,1.20
2023-01-17T10:59:44.367Z,1.20
2023-01-17T11:02:27.811Z,1.10
2023-01-17T11:08:01.758Z,1.20
2023-01-17T11:10:42.349Z,1.20
2023-01-17T11:13:24.669Z,1.00
2023-01-17T11:15:57.466Z,0.82
2023-01-17T11:18:30.004Z,1.08
2023-01-17T11:21:12.103Z,1.10
2023-01-17T11:23:42.884Z,1.20
2023-01-17T11:26:13.664Z,1.27
2023-01-17T11:28:42.221Z,1.35
2023-01-17T11:31:26.359Z,1.40
2023-01-17T11:34:18.544Z,1.77
2023-01-17T11:36:46.915Z,1.73
2023-01-17T11:39:29.123Z,1.67
2023-01-17T11:41:57.883Z,1.40
2023-01-17T11:44:28.110Z,1.50
2023-01-17T11:47:19.115Z,1.73
2023-01-17T11:49:50.417Z,1.60
2023-01-17T11:52:24.297Z,1.52
2023-01-17T11:54:54.792Z,1.30
2023-01-17T11:57:25.909Z,1.20
2023-01-17T11:59:59.946Z,1.27
2023-01-17T12:02:59.431Z,1.30
2023-01-17T12:05:51.149Z,1.50
2023-01-17T12:08:30.315Z,1.30
2023-01-17T12:11:06.507Z,1.17
2023-01-17T12:14:01.343Z,1.33
2023-01-17T12:16:43.771Z,1.30
2023-01-17T12:19:39.126Z,1.50
2023-01-17T12:22:22.593Z,1.77
2023-01-17T12:25:05.998Z,1.35
2023-01-17T12:27:43.458Z,1.50
2023-01-17T12:30:31.368Z,1.63
2023-01-17T12:33:11.967Z,1.15
2023-01-17T12:35:46.186Z,0.90
2023-01-17T12:38:32.184Z,1.00
2023-01-17T12:41:07.985Z,1.20
2023-01-17T12:43:40.480Z,1.42
2023-01-17T12:46:20.896Z,1.20
2023-01-17T12:48:54.932Z,1.00
2023-01-17T12:51:29.284Z,1.05
2023-01-17T12:54:06.186Z,1.20
2023-01-17T12:56:40.303Z,0.90
2023-01-17T12:59:16.194Z,1.00
2023-01-17T13:01:57.569Z,1.00
2023-01-17T13:04:30.550Z,0.90
2023-01-17T13:07:08.717Z,1.05
2023-01-17T13:09:45.498Z,1.20
2023-01-17T13:12:16.216Z,1.20
2023-01-17T13:14:47.039Z,1.20
2023-01-17T13:17:29.460Z,1.35
2023-01-17T13:20:02.533Z,1.38
2023-01-17T13:22:32.850Z,1.20
2023-01-17T13:25:15.182Z,1.60
2023-01-17T13:28:04.382Z,1.40
2023-01-17T13:30:45.458Z,1.33
2023-01-17T13:33:29.192Z,1.50
2023-01-17T13:36:12.138Z,1.38
2023-01-17T13:39:15.208Z,1.80
2023-01-17T13:41:51.809Z,1.33
2023-01-17T13:44:24.299Z,2.20
2023-01-17T13:47:01.814Z,1.30
2023-01-17T13:49:45.182Z,1.20
2023-01-17T13:52:33.515Z,1.50
2023-01-17T13:55:03.976Z,1.20
2023-01-17T13:57:46.619Z,1.13
2023-01-17T14:00:55.023Z,1.30
2023-01-17T14:04:03.455Z,1.10
2023-01-17T14:06:37.176Z,1.00
2023-01-17T14:09:14.047Z,0.80
2023-01-17T14:11:55.626Z,2.00
2023-01-17T14:14:45.968Z,2.65
2023-01-17T14:17:51.538Z,0.88
2023-01-17T14:20:52.645Z,1.00
2023-01-17T14:23:50.085Z,0.88
2023-01-17T14:26:32.261Z,0.90
2023-01-17T14:29:39.673Z,0.70
2023-01-17T14:32:12.509Z,1.00
2023-01-17T14:34:41.239Z,0.80
2023-01-17T14:37:19.410Z,0.77
2023-01-17T14:39:49.897Z,0.80
2023-01-17T14:42:20.424Z,1.00
2023-01-17T14:44:51.895Z,1.42
2023-01-17T14:47:22.377Z,1.00
2023-01-17T14:50:10.897Z,1.10
2023-01-17T14:52:39.333Z,0.93
2023-01-17T14:55:16.089Z,1.00
2023-01-17T14:57:54.700Z,0.93
2023-01-17T15:00:25.782Z,1.20
2023-01-17T15:02:57.397Z,1.35
2023-01-17T15:05:28.660Z,1.38
2023-01-17T15:07:59.116Z,0.95
2023-01-17T15:10:31.213Z,1.00
2023-01-17T15:13:08.994Z,0.90
2023-01-17T15:15:41.912Z,1.17
2023-01-17T15:18:25.662Z,1.00
2023-01-17T15:21:01.131Z,0.90
2023-01-17T15:23:34.445Z,1.13
2023-01-17T15:26:05.575Z,1.10
2023-01-17T15:28:35.306Z,1.20
2023-01-17T15:31:13.324Z,1.30
2023-01-17T15:33:46.511Z,1.10
2023-01-17T15:36:30.058Z,1.55
2023-01-17T15:39:01.401Z,1.45
2023-01-17T15:41:34.027Z,1.52
2023-01-17T15:44:03.438Z,1.23
2023-01-17T15:46:39.461Z,1.40
2023-01-17T15:49:17.747Z,1.30
2023-01-17T15:51:53.025Z,1.42
2023-01-17T15:54:35.073Z,1.50
2023-01-17T15:57:24.344Z,1.40
2023-01-17T15:59:55.403Z,1.92
2023-01-17T16:02:29.666Z,2.15
2023-01-17T16:04:59.973Z,1.70
2023-01-17T16:07:37.588Z,1.80
2023-01-17T16:10:14.722Z,3.47
2023-01-17T16:12:43.280Z,2.47
2023-01-17T16:15:13.386Z,2.17
2023-01-17T16:17:45.406Z,2.42
2023-01-17T16:20:20.940Z,2.08
2023-01-17T16:22:50.272Z,2.00
2023-01-17T16:25:21.322Z,2.10
2023-01-17T16:27:50.866Z,2.10
2023-01-17T16:30:22.422Z,2.00
2023-01-17T16:32:51.373Z,2.88
2023-01-17T16:35:22.865Z,1.92
2023-01-17T16:37:52.284Z,2.30
2023-01-17T16:40:22.389Z,3.58
2023-01-17T16:42:51.515Z,5.63
2023-01-17T16:45:20.106Z,4.18
2023-01-17T16:47:49.982Z,4.07
2023-01-17T16:50:23.063Z,3.15
2023-01-17T16:52:51.838Z,2.92
2023-01-17T16:55:22.683Z,2.30
2023-01-17T16:57:51.527Z,2.30
2023-01-17T17:00:20.999Z,2.47
2023-01-17T17:02:51.199Z,2.28
2023-01-17T17:05:21.236Z,2.20
2023-01-17T17:07:51.901Z,2.10
2023-01-17T17:10:24.914Z,2.30
2023-01-17T17:12:53.236Z,2.20
2023-01-17T17:15:21.887Z,2.30
2023-01-17T17:17:51.048Z,2.22
2023-01-17T17:20:20.910Z,2.40
2023-01-17T17:22:51.464Z,2.30
2023-01-17T17:25:20.157Z,2.53
2023-01-17T17:27:48.630Z,2.42
2023-01-17T17:30:17.955Z,2.83
2023-01-17T17:32:47.758Z,2.28
2023-01-17T17:35:16.379Z,3.00
2023-01-17T17:37:46.079Z,2.40
2023-01-17T17:40:14.383Z,2.55
2023-01-17T17:42:43.399Z,2.72
2023-01-17T17:45:12.305Z,2.90
2023-01-17T17:47:40.700Z,2.72
2023-01-17T17:50:10.362Z,3.05
2023-01-17T17:52:38.757Z,3.88
2023-01-17T17:55:09.977Z,3.28
2023-01-17T17:57:38.493Z,2.92
2023-01-17T18:00:20.026Z,4.05
2023-01-17T18:02:48.543Z,4.75
2023-01-17T18:05:16.980Z,5.13
2023-01-17T18:07:45.347Z,3.70
2023-01-17T18:10:15.074Z,4.07
2023-01-17T18:12:43.450Z,3.67
2023-01-17T18:15:11.930Z,3.08
2023-01-17T18:17:40.309Z,3.30
2023-01-17T18:20:09.830Z,3.22
2023-01-17T18:22:38.161Z,3.00
2023-01-17T18:25:07.624Z,3.55
2023-01-17T18:27:38.622Z,2.97
2023-01-17T18:30:08.315Z,3.13
2023-01-17T18:32:38.772Z,3.28
2023-01-17T18:35:10.832Z,2.70
2023-01-17T18:37:39.478Z,2.80
2023-01-17T18:40:08.429Z,3.08
2023-01-17T18:42:38.911Z,2.72
2023-01-17T18:45:08.223Z,2.80
2023-01-17T18:47:38.712Z,3.30
2023-01-17T18:50:07.461Z,3.45
2023-01-17T18:52:36.976Z,3.35
2023-01-17T18:55:05.945Z,4.18
2023-01-17T18:57:34.303Z,4.88
2023-01-17T19:00:04.494Z,4.75
2023-01-17T19:02:32.841Z,5.00
2023-01-17T19:05:01.725Z,5.10
2023-01-17T19:07:32.305Z,4.28
2023-01-17T19:10:00.760Z,5.03
2023-01-17T19:12:29.107Z,3.85
2023-01-17T19:14:57.474Z,4.07
2023-01-17T19:17:27.213Z,3.72
2023-01-17T19:19:57.108Z,3.13
2023-01-17T19:22:25.719Z,3.40
2023-01-17T19:24:54.834Z,3.15
2023-01-17T19:27:23.311Z,3.00
2023-01-17T19:29:51.656Z,3.35
2023-01-17T19:32:20.076Z,3.50
2023-01-17T19:34:49.809Z,2.75
2023-01-17T19:37:18.345Z,3.13
2023-01-17T19:39:46.775Z,2.90
2023-01-17T19:42:15.617Z,3.05
2023-01-17T19:44:43.938Z,3.58
2023-01-17T19:47:12.472Z,3.70
2023-01-17T19:49:42.334Z,3.45
2023-01-17T19:52:12.964Z,4.38
2023-01-17T19:54:41.299Z,4.80
2023-01-17T19:57:09.622Z,4.22
2023-01-17T19:59:37.988Z,3.97
2023-01-17T20:02:06.541Z,3.78
2023-01-17T20:04:35.003Z,3.40
2023-01-17T20:07:03.813Z,3.70
2023-01-17T20:09:34.715Z,3.92
2023-01-17T20:12:03.079Z,3.60
2023-01-17T20:14:31.367Z,3.40
2023-01-17T20:16:59.679Z,3.55
2023-01-17T20:19:27.982Z,3.47
2023-01-17T20:21:56.334Z,3.72
2023-01-17T20:24:25.091Z,3.65
2023-01-17T20:26:57.874Z,3.35
2023-01-17T20:29:26.343Z,3.53
2023-01-17T20:31:54.785Z,3.53
2023-01-17T20:34:25.696Z,3.47
2023-01-17T20:36:57.334Z,4.05
2023-01-17T20:39:25.834Z,4.07
2023-01-17T20:41:55.887Z,4.07
2023-01-17T20:44:24.421Z,3.92
2023-01-17T20:46:52.724Z,4.55
2023-01-17T20:49:21.745Z,3.70
2023-01-17T20:51:50.098Z,4.05
2023-01-17T20:54:19.877Z,4.25
2023-01-17T20:56:48.827Z,4.65
2023-01-17T20:59:20.263Z,4.45
2023-01-17T21:01:49.362Z,3.78
2023-01-17T21:04:24.743Z,3.30
2023-01-17T21:06:54.535Z,3.95
2023-01-17T21:09:22.954Z,3.97
2023-01-17T21:11:51.697Z,3.65
2023-01-17T21:14:22.575Z,3.15
2023-01-17T21:16:51.244Z,3.60
2023-01-17T21:19:20.543Z,4.22
2023-01-17T21:21:50.054Z,3.78
2023-01-17T21:24:19.993Z,4.35
2023-01-17T21:26:51.251Z,4.10
2023-01-17T21:29:21.102Z,4.13
2023-01-17T21:31:49.454Z,3.58
2023-01-17T21:34:17.738Z,4.22
2023-01-17T21:36:46.082Z,3.40
2023-01-17T21:39:16.558Z,4.18
2023-01-17T21:41:48.233Z,4.18
2023-01-17T21:44:20.156Z,4.43
2023-01-17T21:46:53.460Z,3.90
2023-01-17T21:49:23.730Z,4.00
2023-01-17T21:52:09.501Z,3.97
2023-01-17T21:54:55.412Z,3.63
2023-01-17T21:57:41.604Z,3.75
2023-01-17T22:02:48.139Z,3.13
2023-01-17T22:05:18.384Z,4.15
2023-01-17T22:08:00.959Z,4.20
2023-01-17T22:10:29.537Z,3.75
2023-01-17T22:12:57.881Z,3.83
2023-01-17T22:15:26.367Z,3.78
2023-01-17T22:17:56.353Z,4.82
2023-01-17T22:20:25.007Z,4.50
2023-01-17T22:22:53.463Z,4.72
2023-01-17T22:25:23.312Z,4.15
2023-01-17T22:27:51.688Z,4.47
2023-01-17T22:30:20.021Z,3.95
2023-01-17T22:32:48.361Z,3.53
2023-01-17T22:35:18.204Z,3.92
2023-01-17T22:37:47.267Z,4.82
2023-01-17T22:40:15.888Z,4.55
2023-01-17T22:42:44.202Z,4.63
2023-01-17T22:45:14.211Z,4.60
2023-01-17T22:47:43.339Z,4.80
2023-01-17T22:50:13.009Z,4.40
2023-01-17T22:52:42.703Z,4.95
2023-01-17T22:55:12.016Z,5.10
2023-01-17T22:57:40.391Z,4.72
2023-01-17T23:00:14.362Z,5.30
2023-01-17T23:02:43.547Z,5.03
2023-01-17T23:05:11.970Z,5.07
2023-01-17T23:07:44.263Z,4.90
2023-01-17T23:10:33.902Z,4.80
2023-01-17T23:13:02.286Z,4.53
2023-01-17T23:15:48.184Z,4.55
2023-01-17T23:18:34.052Z,4.30
2023-01-17T23:21:02.426Z,4.35
2023-01-17T23:23:32.995Z,4.50
2023-01-17T23:26:01.957Z,5.32
2023-01-17T23:28:29.397Z,4.20
2023-01-17T23:31:04.808Z,4.80
2023-01-17T23:33:33.386Z,4.60
2023-01-17T23:36:01.695Z,4.38
2023-01-17T23:38:30.171Z,4.55
2023-01-17T23:41:21.957Z,4.30
2023-01-17T23:43:54.267Z,4.75
2023-01-17T23:46:25.223Z,5.32
2023-01-17T23:48:54.741Z,4.40
2023-01-17T23:51:23.190Z,3.85
2023-01-17T23:53:57.116Z,4.95
2023-01-17T23:56:26.941Z,4.18
2023-01-17T23:58:55.265Z,4.35
